Graceton, Texas
Current Conditions -  °F | °C
As of 2:35 AM on Friday 21 Nov 2014 (Local Time) from KOSA Reporting Station
Overcast Overcast  
Wind Chill: 56°   Ceiling: 3300
Heat Index: 56°   Visibility: 10mi
Dew Point: 55°   Wind: 0mph
Humidity: 98%   Direction: NA
Pressure: 30.14"   Gusts: NA
Location:  32.7353°N, 94.9492°W
Report Text: KOSA 210835Z AUTO 00000KT 10SM SCT020 BKN033 OVC049 13/13 A3014 RMK AO1 T01330130
Loading
Personal Weather Stations






























Interactive Weather Map New forecast layout! Learn more

10-Day Weather Forecast

Advertisements
Track Severe Weather on mobile